sensor_id;sensor_type;location;lat;lon;timestamp;temperature;humidity
2941;DHT22;1480;51.456;6.670;2022-11-20T00:00:41;3.20;74.60
2941;DHT22;1480;51.456;6.670;2022-11-20T00:03:08;3.10;74.70
2941;DHT22;1480;51.456;6.670;2022-11-20T00:05:35;3.30;74.20
2941;DHT22;1480;51.456;6.670;2022-11-20T00:08:02;3.10;74.80
2941;DHT22;1480;51.456;6.670;2022-11-20T00:10:29;3.10;74.30
2941;DHT22;1480;51.456;6.670;2022-11-20T00:12:57;3.20;74.20
2941;DHT22;1480;51.456;6.670;2022-11-20T00:15:26;2.90;72.90
2941;DHT22;1480;51.456;6.670;2022-11-20T00:17:53;2.90;74.20
2941;DHT22;1480;51.456;6.670;2022-11-20T00:20:20;2.90;75.40
2941;DHT22;1480;51.456;6.670;2022-11-20T00:22:47;2.90;75.30
2941;DHT22;1480;51.456;6.670;2022-11-20T00:25:14;3.00;75.70
2941;DHT22;1480;51.456;6.670;2022-11-20T00:27:41;2.90;75.70
2941;DHT22;1480;51.456;6.670;2022-11-20T00:30:09;2.90;75.70
2941;DHT22;1480;51.456;6.670;2022-11-20T00:32:37;3.00;74.80
2941;DHT22;1480;51.456;6.670;2022-11-20T00:35:05;3.00;74.60
2941;DHT22;1480;51.456;6.670;2022-11-20T00:37:32;3.20;74.00
2941;DHT22;1480;51.456;6.670;2022-11-20T00:39:58;3.20;74.00
2941;DHT22;1480;51.456;6.670;2022-11-20T00:42:25;3.00;74.90
2941;DHT22;1480;51.456;6.670;2022-11-20T00:44:52;3.20;75.20
2941;DHT22;1480;51.456;6.670;2022-11-20T00:47:19;3.00;75.50
2941;DHT22;1480;51.456;6.670;2022-11-20T00:49:48;2.90;74.80
2941;DHT22;1480;51.456;6.670;2022-11-20T00:52:15;3.00;74.60
2941;DHT22;1480;51.456;6.670;2022-11-20T00:54:41;3.00;73.80
2941;DHT22;1480;51.456;6.670;2022-11-20T00:57:08;3.00;75.00
2941;DHT22;1480;51.456;6.670;2022-11-20T00:59:35;2.90;74.60
2941;DHT22;1480;51.456;6.670;2022-11-20T01:02:02;2.90;74.60
2941;DHT22;1480;51.456;6.670;2022-11-20T01:04:29;3.00;74.20
2941;DHT22;1480;51.456;6.670;2022-11-20T01:06:58;3.00;74.70
2941;DHT22;1480;51.456;6.670;2022-11-20T01:09:24;2.80;75.30
2941;DHT22;1480;51.456;6.670;2022-11-20T01:11:51;2.80;75.80
2941;DHT22;1480;51.456;6.670;2022-11-20T01:14:20;3.10;75.20
2941;DHT22;1480;51.456;6.670;2022-11-20T01:16:48;2.80;74.90
2941;DHT22;1480;51.456;6.670;2022-11-20T01:19:17;2.90;75.30
2941;DHT22;1480;51.456;6.670;2022-11-20T01:21:46;2.80;75.20
2941;DHT22;1480;51.456;6.670;2022-11-20T01:24:16;2.80;75.00
2941;DHT22;1480;51.456;6.670;2022-11-20T01:26:44;2.90;75.40
2941;DHT22;1480;51.456;6.670;2022-11-20T01:29:14;2.80;74.40
2941;DHT22;1480;51.456;6.670;2022-11-20T01:31:41;2.90;74.80
2941;DHT22;1480;51.456;6.670;2022-11-20T01:34:10;2.90;75.10
2941;DHT22;1480;51.456;6.670;2022-11-20T01:36:38;3.00;74.90
2941;DHT22;1480;51.456;6.670;2022-11-20T01:39:07;3.10;74.60
2941;DHT22;1480;51.456;6.670;2022-11-20T01:41:37;3.30;73.80
2941;DHT22;1480;51.456;6.670;2022-11-20T01:44:52;3.30;73.70
2941;DHT22;1480;51.456;6.670;2022-11-20T01:47:33;3.30;74.20
2941;DHT22;1480;51.456;6.670;2022-11-20T01:50:05;3.50;74.10
2941;DHT22;1480;51.456;6.670;2022-11-20T01:52:36;3.60;73.60
2941;DHT22;1480;51.456;6.670;2022-11-20T01:55:07;3.70;71.80
2941;DHT22;1480;51.456;6.670;2022-11-20T01:57:38;3.50;73.10
2941;DHT22;1480;51.456;6.670;2022-11-20T02:00:07;3.50;71.80
2941;DHT22;1480;51.456;6.670;2022-11-20T02:02:42;3.30;73.30
2941;DHT22;1480;51.456;6.670;2022-11-20T02:05:18;3.30;72.50
2941;DHT22;1480;51.456;6.670;2022-11-20T02:07:47;3.20;73.40
2941;DHT22;1480;51.456;6.670;2022-11-20T02:10:15;3.30;73.90
2941;DHT22;1480;51.456;6.670;2022-11-20T02:12:43;3.30;74.10
2941;DHT22;1480;51.456;6.670;2022-11-20T02:15:28;3.50;73.00
2941;DHT22;1480;51.456;6.670;2022-11-20T02:17:55;3.10;74.00
2941;DHT22;1480;51.456;6.670;2022-11-20T02:20:22;3.30;75.00
2941;DHT22;1480;51.456;6.670;2022-11-20T02:22:53;3.20;75.10
2941;DHT22;1480;51.456;6.670;2022-11-20T02:25:22;3.40;75.60
2941;DHT22;1480;51.456;6.670;2022-11-20T02:27:50;3.40;75.60
2941;DHT22;1480;51.456;6.670;2022-11-20T02:30:18;3.50;74.70
2941;DHT22;1480;51.456;6.670;2022-11-20T02:32:45;3.60;74.90
2941;DHT22;1480;51.456;6.670;2022-11-20T02:35:40;3.90;74.70
2941;DHT22;1480;51.456;6.670;2022-11-20T02:38:08;3.70;74.60
2941;DHT22;1480;51.456;6.670;2022-11-20T02:40:36;3.60;74.90
2941;DHT22;1480;51.456;6.670;2022-11-20T02:43:03;3.50;74.90
2941;DHT22;1480;51.456;6.670;2022-11-20T02:45:30;3.60;74.50
2941;DHT22;1480;51.456;6.670;2022-11-20T02:47:57;3.70;74.20
2941;DHT22;1480;51.456;6.670;2022-11-20T02:50:24;3.60;75.30
2941;DHT22;1480;51.456;6.670;2022-11-20T02:52:51;3.60;75.30
2941;DHT22;1480;51.456;6.670;2022-11-20T02:55:18;3.50;75.50
2941;DHT22;1480;51.456;6.670;2022-11-20T02:57:46;3.70;75.80
2941;DHT22;1480;51.456;6.670;2022-11-20T03:00:14;3.60;74.00
2941;DHT22;1480;51.456;6.670;2022-11-20T03:02:41;3.30;74.20
2941;DHT22;1480;51.456;6.670;2022-11-20T03:05:08;3.50;76.80
2941;DHT22;1480;51.456;6.670;2022-11-20T03:07:35;3.10;76.50
2941;DHT22;1480;51.456;6.670;2022-11-20T03:10:03;3.50;76.50
2941;DHT22;1480;51.456;6.670;2022-11-20T03:12:30;3.60;76.50
2941;DHT22;1480;51.456;6.670;2022-11-20T03:14:58;3.60;76.20
2941;DHT22;1480;51.456;6.670;2022-11-20T03:17:25;3.70;75.70
2941;DHT22;1480;51.456;6.670;2022-11-20T03:19:52;3.70;75.70
2941;DHT22;1480;51.456;6.670;2022-11-20T03:22:18;3.70;76.00
2941;DHT22;1480;51.456;6.670;2022-11-20T03:24:45;3.70;75.70
2941;DHT22;1480;51.456;6.670;2022-11-20T03:27:12;4.00;75.70
2941;DHT22;1480;51.456;6.670;2022-11-20T03:29:39;4.00;75.30
2941;DHT22;1480;51.456;6.670;2022-11-20T03:32:07;3.90;75.30
2941;DHT22;1480;51.456;6.670;2022-11-20T03:34:34;3.80;75.00
2941;DHT22;1480;51.456;6.670;2022-11-20T03:37:01;3.80;75.50
2941;DHT22;1480;51.456;6.670;2022-11-20T03:39:28;3.90;75.10
2941;DHT22;1480;51.456;6.670;2022-11-20T03:41:55;4.00;75.60
2941;DHT22;1480;51.456;6.670;2022-11-20T03:44:22;4.10;76.30
2941;DHT22;1480;51.456;6.670;2022-11-20T03:46:49;4.00;76.30
2941;DHT22;1480;51.456;6.670;2022-11-20T03:49:17;4.10;75.30
2941;DHT22;1480;51.456;6.670;2022-11-20T03:51:44;4.00;75.80
2941;DHT22;1480;51.456;6.670;2022-11-20T03:54:11;4.20;75.60
2941;DHT22;1480;51.456;6.670;2022-11-20T03:56:38;4.10;75.30
2941;DHT22;1480;51.456;6.670;2022-11-20T03:59:06;4.10;76.60
2941;DHT22;1480;51.456;6.670;2022-11-20T04:01:34;4.20;75.90
2941;DHT22;1480;51.456;6.670;2022-11-20T04:04:03;4.10;76.30
2941;DHT22;1480;51.456;6.670;2022-11-20T04:06:35;3.90;76.00
2941;DHT22;1480;51.456;6.670;2022-11-20T04:09:03;3.90;76.80
2941;DHT22;1480;51.456;6.670;2022-11-20T04:11:32;4.00;76.60
2941;DHT22;1480;51.456;6.670;2022-11-20T04:14:00;4.10;76.00
2941;DHT22;1480;51.456;6.670;2022-11-20T04:16:29;4.10;76.10
2941;DHT22;1480;51.456;6.670;2022-11-20T04:18:58;4.00;75.50
2941;DHT22;1480;51.456;6.670;2022-11-20T04:21:25;4.10;75.70
2941;DHT22;1480;51.456;6.670;2022-11-20T04:23:55;4.10;76.30
2941;DHT22;1480;51.456;6.670;2022-11-20T04:26:23;4.10;76.00
2941;DHT22;1480;51.456;6.670;2022-11-20T04:28:50;4.20;76.10
2941;DHT22;1480;51.456;6.670;2022-11-20T04:31:19;4.30;76.20
2941;DHT22;1480;51.456;6.670;2022-11-20T04:33:46;4.20;76.80
2941;DHT22;1480;51.456;6.670;2022-11-20T04:36:15;4.20;76.30
2941;DHT22;1480;51.456;6.670;2022-11-20T04:38:43;4.20;76.50
2941;DHT22;1480;51.456;6.670;2022-11-20T04:41:15;4.20;75.90
2941;DHT22;1480;51.456;6.670;2022-11-20T04:43:46;4.00;74.30
2941;DHT22;1480;51.456;6.670;2022-11-20T04:46:13;3.90;74.70
2941;DHT22;1480;51.456;6.670;2022-11-20T04:48:40;3.80;74.50
2941;DHT22;1480;51.456;6.670;2022-11-20T04:51:07;3.90;75.80
2941;DHT22;1480;51.456;6.670;2022-11-20T04:53:34;3.90;75.30
2941;DHT22;1480;51.456;6.670;2022-11-20T04:56:01;3.70;75.00
2941;DHT22;1480;51.456;6.670;2022-11-20T04:58:29;4.10;75.50
2941;DHT22;1480;51.456;6.670;2022-11-20T05:01:01;4.00;75.80
2941;DHT22;1480;51.456;6.670;2022-11-20T05:03:28;4.00;74.90
2941;DHT22;1480;51.456;6.670;2022-11-20T05:05:55;4.00;75.30
2941;DHT22;1480;51.456;6.670;2022-11-20T05:08:22;4.10;74.70
2941;DHT22;1480;51.456;6.670;2022-11-20T05:10:49;4.10;74.20
2941;DHT22;1480;51.456;6.670;2022-11-20T05:13:16;4.10;74.70
2941;DHT22;1480;51.456;6.670;2022-11-20T05:15:44;4.00;75.00
2941;DHT22;1480;51.456;6.670;2022-11-20T05:18:11;4.40;74.70
2941;DHT22;1480;51.456;6.670;2022-11-20T05:20:38;4.10;74.40
2941;DHT22;1480;51.456;6.670;2022-11-20T05:23:05;4.30;74.50
2941;DHT22;1480;51.456;6.670;2022-11-20T05:25:32;4.40;74.50
2941;DHT22;1480;51.456;6.670;2022-11-20T05:27:59;4.30;75.10
2941;DHT22;1480;51.456;6.670;2022-11-20T05:30:26;4.30;75.20
2941;DHT22;1480;51.456;6.670;2022-11-20T05:32:54;4.40;74.60
2941;DHT22;1480;51.456;6.670;2022-11-20T05:35:21;4.40;75.20
2941;DHT22;1480;51.456;6.670;2022-11-20T05:37:48;4.60;74.40
2941;DHT22;1480;51.456;6.670;2022-11-20T05:40:15;4.50;73.90
2941;DHT22;1480;51.456;6.670;2022-11-20T05:42:41;4.40;74.70
2941;DHT22;1480;51.456;6.670;2022-11-20T05:45:09;4.30;74.30
2941;DHT22;1480;51.456;6.670;2022-11-20T05:47:36;4.50;74.60
2941;DHT22;1480;51.456;6.670;2022-11-20T05:50:05;4.60;74.60
2941;DHT22;1480;51.456;6.670;2022-11-20T05:52:32;4.60;74.10
2941;DHT22;1480;51.456;6.670;2022-11-20T05:54:59;4.50;74.30
2941;DHT22;1480;51.456;6.670;2022-11-20T05:57:26;4.40;74.30
2941;DHT22;1480;51.456;6.670;2022-11-20T05:59:53;4.30;74.70
2941;DHT22;1480;51.456;6.670;2022-11-20T06:02:19;4.20;75.20
2941;DHT22;1480;51.456;6.670;2022-11-20T06:04:46;4.30;75.50
2941;DHT22;1480;51.456;6.670;2022-11-20T06:07:15;4.40;75.60
2941;DHT22;1480;51.456;6.670;2022-11-20T06:09:42;4.30;75.70
2941;DHT22;1480;51.456;6.670;2022-11-20T06:12:09;4.30;75.70
2941;DHT22;1480;51.456;6.670;2022-11-20T06:14:36;4.40;75.70
2941;DHT22;1480;51.456;6.670;2022-11-20T06:17:03;4.50;76.10
2941;DHT22;1480;51.456;6.670;2022-11-20T06:19:30;4.50;75.20
2941;DHT22;1480;51.456;6.670;2022-11-20T06:21:57;4.50;74.90
2941;DHT22;1480;51.456;6.670;2022-11-20T06:24:25;4.20;75.50
2941;DHT22;1480;51.456;6.670;2022-11-20T06:26:52;4.30;76.50
2941;DHT22;1480;51.456;6.670;2022-11-20T06:29:19;4.30;75.90
2941;DHT22;1480;51.456;6.670;2022-11-20T06:31:46;4.30;76.20
2941;DHT22;1480;51.456;6.670;2022-11-20T06:34:13;4.10;76.50
2941;DHT22;1480;51.456;6.670;2022-11-20T06:36:39;4.10;75.90
2941;DHT22;1480;51.456;6.670;2022-11-20T06:39:06;4.20;77.20
2941;DHT22;1480;51.456;6.670;2022-11-20T06:41:35;4.20;76.80
2941;DHT22;1480;51.456;6.670;2022-11-20T06:44:03;4.10;77.10
2941;DHT22;1480;51.456;6.670;2022-11-20T06:46:30;4.20;76.80
2941;DHT22;1480;51.456;6.670;2022-11-20T06:48:57;4.00;77.60
2941;DHT22;1480;51.456;6.670;2022-11-20T06:51:24;4.30;77.80
2941;DHT22;1480;51.456;6.670;2022-11-20T06:53:51;4.20;77.10
2941;DHT22;1480;51.456;6.670;2022-11-20T06:56:18;4.30;77.20
2941;DHT22;1480;51.456;6.670;2022-11-20T06:58:46;4.20;77.20
2941;DHT22;1480;51.456;6.670;2022-11-20T07:01:14;4.30;77.40
2941;DHT22;1480;51.456;6.670;2022-11-20T07:03:42;4.30;77.80
2941;DHT22;1480;51.456;6.670;2022-11-20T07:06:09;4.40;77.60
2941;DHT22;1480;51.456;6.670;2022-11-20T07:08:37;4.40;77.40
2941;DHT22;1480;51.456;6.670;2022-11-20T07:11:05;4.20;77.20
2941;DHT22;1480;51.456;6.670;2022-11-20T07:13:33;4.30;77.50
2941;DHT22;1480;51.456;6.670;2022-11-20T07:16:04;4.10;77.70
2941;DHT22;1480;51.456;6.670;2022-11-20T07:18:31;4.00;77.40
2941;DHT22;1480;51.456;6.670;2022-11-20T07:21:00;4.10;77.90
2941;DHT22;1480;51.456;6.670;2022-11-20T07:23:27;4.10;78.40
2941;DHT22;1480;51.456;6.670;2022-11-20T07:25:54;4.30;78.30
2941;DHT22;1480;51.456;6.670;2022-11-20T07:28:21;4.30;78.60
2941;DHT22;1480;51.456;6.670;2022-11-20T07:30:52;4.20;78.60
2941;DHT22;1480;51.456;6.670;2022-11-20T07:33:21;4.40;78.20
2941;DHT22;1480;51.456;6.670;2022-11-20T07:35:47;4.50;77.80
2941;DHT22;1480;51.456;6.670;2022-11-20T07:38:15;4.60;77.60
2941;DHT22;1480;51.456;6.670;2022-11-20T07:40:41;4.60;77.60
2941;DHT22;1480;51.456;6.670;2022-11-20T07:43:08;4.60;77.50
2941;DHT22;1480;51.456;6.670;2022-11-20T07:45:35;4.70;77.90
2941;DHT22;1480;51.456;6.670;2022-11-20T07:48:02;4.70;77.40
2941;DHT22;1480;51.456;6.670;2022-11-20T07:50:31;5.00;77.50
2941;DHT22;1480;51.456;6.670;2022-11-20T07:53:02;4.60;77.80
2941;DHT22;1480;51.456;6.670;2022-11-20T07:55:29;4.70;77.80
2941;DHT22;1480;51.456;6.670;2022-11-20T07:57:56;4.60;77.40
2941;DHT22;1480;51.456;6.670;2022-11-20T08:00:24;4.80;77.40
2941;DHT22;1480;51.456;6.670;2022-11-20T08:02:51;4.90;77.30
2941;DHT22;1480;51.456;6.670;2022-11-20T08:05:18;4.90;77.10
2941;DHT22;1480;51.456;6.670;2022-11-20T08:07:47;4.90;77.30
2941;DHT22;1480;51.456;6.670;2022-11-20T08:10:15;4.80;77.40
2941;DHT22;1480;51.456;6.670;2022-11-20T08:12:46;4.80;77.70
2941;DHT22;1480;51.456;6.670;2022-11-20T08:15:31;4.80;78.00
2941;DHT22;1480;51.456;6.670;2022-11-20T08:18:02;4.90;77.80
2941;DHT22;1480;51.456;6.670;2022-11-20T08:20:29;4.90;77.70
2941;DHT22;1480;51.456;6.670;2022-11-20T08:23:02;5.00;78.00
2941;DHT22;1480;51.456;6.670;2022-11-20T08:25:31;5.00;77.40
2941;DHT22;1480;51.456;6.670;2022-11-20T08:27:58;4.80;77.50
2941;DHT22;1480;51.456;6.670;2022-11-20T08:30:26;4.80;77.70
2941;DHT22;1480;51.456;6.670;2022-11-20T08:32:54;4.80;77.80
2941;DHT22;1480;51.456;6.670;2022-11-20T08:35:21;4.60;77.90
2941;DHT22;1480;51.456;6.670;2022-11-20T08:37:48;4.80;78.20
2941;DHT22;1480;51.456;6.670;2022-11-20T08:40:17;4.80;78.20
2941;DHT22;1480;51.456;6.670;2022-11-20T08:42:47;4.80;77.70
2941;DHT22;1480;51.456;6.670;2022-11-20T08:45:15;5.00;78.00
2941;DHT22;1480;51.456;6.670;2022-11-20T08:47:42;5.00;77.70
2941;DHT22;1480;51.456;6.670;2022-11-20T08:50:10;5.00;77.90
2941;DHT22;1480;51.456;6.670;2022-11-20T08:52:37;5.10;78.00
2941;DHT22;1480;51.456;6.670;2022-11-20T08:55:05;5.10;77.70
2941;DHT22;1480;51.456;6.670;2022-11-20T08:57:34;5.10;77.60
2941;DHT22;1480;51.456;6.670;2022-11-20T09:00:11;5.10;78.00
2941;DHT22;1480;51.456;6.670;2022-11-20T09:02:39;5.30;77.40
2941;DHT22;1480;51.456;6.670;2022-11-20T09:05:06;5.10;77.30
2941;DHT22;1480;51.456;6.670;2022-11-20T09:07:33;5.10;77.70
2941;DHT22;1480;51.456;6.670;2022-11-20T09:10:00;5.40;77.90
2941;DHT22;1480;51.456;6.670;2022-11-20T09:12:27;5.50;78.60
2941;DHT22;1480;51.456;6.670;2022-11-20T09:14:55;5.90;78.20
2941;DHT22;1480;51.456;6.670;2022-11-20T09:17:22;6.00;76.10
2941;DHT22;1480;51.456;6.670;2022-11-20T09:19:49;5.80;75.30
2941;DHT22;1480;51.456;6.670;2022-11-20T09:22:16;5.80;76.70
2941;DHT22;1480;51.456;6.670;2022-11-20T09:24:43;5.70;76.30
2941;DHT22;1480;51.456;6.670;2022-11-20T09:27:10;6.00;76.70
2941;DHT22;1480;51.456;6.670;2022-11-20T09:29:36;6.00;76.30
2941;DHT22;1480;51.456;6.670;2022-11-20T09:32:05;6.20;76.40
2941;DHT22;1480;51.456;6.670;2022-11-20T09:34:32;6.10;75.80
2941;DHT22;1480;51.456;6.670;2022-11-20T09:36:59;5.90;76.10
2941;DHT22;1480;51.456;6.670;2022-11-20T09:39:26;5.70;76.30
2941;DHT22;1480;51.456;6.670;2022-11-20T09:42:16;5.70;76.50
2941;DHT22;1480;51.456;6.670;2022-11-20T09:45:02;5.70;76.50
2941;DHT22;1480;51.456;6.670;2022-11-20T09:47:43;5.40;77.20
2941;DHT22;1480;51.456;6.670;2022-11-20T09:50:25;5.40;78.10
2941;DHT22;1480;51.456;6.670;2022-11-20T09:53:10;5.50;78.40
2941;DHT22;1480;51.456;6.670;2022-11-20T09:55:38;5.40;78.80
2941;DHT22;1480;51.456;6.670;2022-11-20T09:58:06;5.10;78.60
2941;DHT22;1480;51.456;6.670;2022-11-20T10:00:35;5.40;79.00
2941;DHT22;1480;51.456;6.670;2022-11-20T10:03:13;5.40;79.20
2941;DHT22;1480;51.456;6.670;2022-11-20T10:05:44;5.60;79.00
2941;DHT22;1480;51.456;6.670;2022-11-20T10:08:16;5.50;78.90
2941;DHT22;1480;51.456;6.670;2022-11-20T10:10:46;5.40;78.80
2941;DHT22;1480;51.456;6.670;2022-11-20T10:13:27;5.70;79.00
2941;DHT22;1480;51.456;6.670;2022-11-20T10:16:08;5.80;79.60
2941;DHT22;1480;51.456;6.670;2022-11-20T10:18:48;6.00;79.20
2941;DHT22;1480;51.456;6.670;2022-11-20T10:21:24;6.00;78.60
2941;DHT22;1480;51.456;6.670;2022-11-20T10:27:06;6.20;78.30
2941;DHT22;1480;51.456;6.670;2022-11-20T10:29:42;6.20;78.70
2941;DHT22;1480;51.456;6.670;2022-11-20T10:32:15;6.20;78.00
2941;DHT22;1480;51.456;6.670;2022-11-20T10:34:50;6.40;78.00
2941;DHT22;1480;51.456;6.670;2022-11-20T10:37:21;6.30;78.50
2941;DHT22;1480;51.456;6.670;2022-11-20T10:39:54;6.20;78.90
2941;DHT22;1480;51.456;6.670;2022-11-20T10:42:28;6.30;78.80
2941;DHT22;1480;51.456;6.670;2022-11-20T10:45:02;6.20;79.00
2941;DHT22;1480;51.456;6.670;2022-11-20T10:47:36;6.20;79.60
2941;DHT22;1480;51.456;6.670;2022-11-20T10:50:09;6.40;80.00
2941;DHT22;1480;51.456;6.670;2022-11-20T10:52:44;6.50;79.90
2941;DHT22;1480;51.456;6.670;2022-11-20T10:55:25;6.70;79.50
2941;DHT22;1480;51.456;6.670;2022-11-20T10:58:00;6.80;80.40
2941;DHT22;1480;51.456;6.670;2022-11-20T11:00:31;6.70;79.90
2941;DHT22;1480;51.456;6.670;2022-11-20T11:02:58;6.50;79.80
2941;DHT22;1480;51.456;6.670;2022-11-20T11:05:36;6.40;79.90
2941;DHT22;1480;51.456;6.670;2022-11-20T11:08:08;6.40;80.70
2941;DHT22;1480;51.456;6.670;2022-11-20T11:10:42;6.20;81.00
2941;DHT22;1480;51.456;6.670;2022-11-20T11:13:20;6.20;81.40
2941;DHT22;1480;51.456;6.670;2022-11-20T11:15:50;6.30;81.60
2941;DHT22;1480;51.456;6.670;2022-11-20T11:18:25;6.30;81.50
2941;DHT22;1480;51.456;6.670;2022-11-20T11:20:54;6.20;81.40
2941;DHT22;1480;51.456;6.670;2022-11-20T11:23:31;6.30;81.70
2941;DHT22;1480;51.456;6.670;2022-11-20T11:26:00;6.40;81.50
2941;DHT22;1480;51.456;6.670;2022-11-20T11:28:27;6.50;81.30
2941;DHT22;1480;51.456;6.670;2022-11-20T11:30:55;6.10;81.50
2941;DHT22;1480;51.456;6.670;2022-11-20T11:33:23;6.30;81.40
2941;DHT22;1480;51.456;6.670;2022-11-20T11:35:53;6.40;81.80
2941;DHT22;1480;51.456;6.670;2022-11-20T11:38:28;6.30;81.50
2941;DHT22;1480;51.456;6.670;2022-11-20T11:40:56;6.20;81.90
2941;DHT22;1480;51.456;6.670;2022-11-20T11:43:25;6.40;81.50
2941;DHT22;1480;51.456;6.670;2022-11-20T11:46:25;6.30;81.30
2941;DHT22;1480;51.456;6.670;2022-11-20T11:48:57;6.30;81.60
2941;DHT22;1480;51.456;6.670;2022-11-20T11:51:31;6.30;81.70
2941;DHT22;1480;51.456;6.670;2022-11-20T11:54:01;6.40;81.70
2941;DHT22;1480;51.456;6.670;2022-11-20T11:56:30;6.40;82.10
2941;DHT22;1480;51.456;6.670;2022-11-20T11:59:05;6.50;81.70
2941;DHT22;1480;51.456;6.670;2022-11-20T12:01:37;6.50;81.60
2941;DHT22;1480;51.456;6.670;2022-11-20T12:04:17;6.40;81.60
2941;DHT22;1480;51.456;6.670;2022-11-20T12:06:51;6.40;81.60
2941;DHT22;1480;51.456;6.670;2022-11-20T12:09:23;6.40;82.20
2941;DHT22;1480;51.456;6.670;2022-11-20T12:11:54;6.40;82.00
2941;DHT22;1480;51.456;6.670;2022-11-20T12:14:27;6.50;82.30
2941;DHT22;1480;51.456;6.670;2022-11-20T12:16:57;6.50;81.80
2941;DHT22;1480;51.456;6.670;2022-11-20T12:19:24;6.40;82.10
2941;DHT22;1480;51.456;6.670;2022-11-20T12:22:02;6.70;81.90
2941;DHT22;1480;51.456;6.670;2022-11-20T12:24:44;6.50;82.30
2941;DHT22;1480;51.456;6.670;2022-11-20T12:27:39;6.70;81.60
2941;DHT22;1480;51.456;6.670;2022-11-20T12:30:10;6.70;81.40
2941;DHT22;1480;51.456;6.670;2022-11-20T12:33:06;6.60;81.30
2941;DHT22;1480;51.456;6.670;2022-11-20T12:35:52;6.80;80.90
2941;DHT22;1480;51.456;6.670;2022-11-20T12:38:45;6.70;80.50
2941;DHT22;1480;51.456;6.670;2022-11-20T12:41:27;6.90;80.50
2941;DHT22;1480;51.456;6.670;2022-11-20T12:44:23;6.80;80.50
2941;DHT22;1480;51.456;6.670;2022-11-20T12:47:17;6.90;80.60
2941;DHT22;1480;51.456;6.670;2022-11-20T12:49:52;6.70;80.60
2941;DHT22;1480;51.456;6.670;2022-11-20T12:52:34;6.70;80.90
2941;DHT22;1480;51.456;6.670;2022-11-20T12:55:20;6.60;81.00
2941;DHT22;1480;51.456;6.670;2022-11-20T12:57:53;6.70;81.40
2941;DHT22;1480;51.456;6.670;2022-11-20T13:00:22;6.70;81.30
2941;DHT22;1480;51.456;6.670;2022-11-20T13:03:27;6.80;81.30
2941;DHT22;1480;51.456;6.670;2022-11-20T13:06:05;6.70;81.70
2941;DHT22;1480;51.456;6.670;2022-11-20T13:08:35;6.90;81.20
2941;DHT22;1480;51.456;6.670;2022-11-20T13:11:11;6.90;81.50
2941;DHT22;1480;51.456;6.670;2022-11-20T13:13:59;6.70;82.60
2941;DHT22;1480;51.456;6.670;2022-11-20T13:16:32;6.60;83.10
2941;DHT22;1480;51.456;6.670;2022-11-20T13:19:02;6.50;84.20
2941;DHT22;1480;51.456;6.670;2022-11-20T13:21:37;6.40;84.20
2941;DHT22;1480;51.456;6.670;2022-11-20T13:24:04;6.40;85.00
2941;DHT22;1480;51.456;6.670;2022-11-20T13:26:33;6.10;85.40
2941;DHT22;1480;51.456;6.670;2022-11-20T13:29:04;6.20;85.80
2941;DHT22;1480;51.456;6.670;2022-11-20T13:31:35;6.10;86.10
2941;DHT22;1480;51.456;6.670;2022-11-20T13:34:06;6.10;86.50
2941;DHT22;1480;51.456;6.670;2022-11-20T13:36:33;6.10;86.80
2941;DHT22;1480;51.456;6.670;2022-11-20T13:39:02;5.90;87.40
2941;DHT22;1480;51.456;6.670;2022-11-20T13:41:33;6.00;87.80
2941;DHT22;1480;51.456;6.670;2022-11-20T13:44:14;6.00;88.40
2941;DHT22;1480;51.456;6.670;2022-11-20T13:46:43;6.00;88.40
2941;DHT22;1480;51.456;6.670;2022-11-20T13:49:17;6.00;88.80
2941;DHT22;1480;51.456;6.670;2022-11-20T13:51:46;5.90;89.00
2941;DHT22;1480;51.456;6.670;2022-11-20T13:57:32;6.10;89.60
2941;DHT22;1480;51.456;6.670;2022-11-20T14:00:11;5.90;90.20
2941;DHT22;1480;51.456;6.670;2022-11-20T14:02:39;6.10;90.40
2941;DHT22;1480;51.456;6.670;2022-11-20T14:05:17;5.80;90.30
2941;DHT22;1480;51.456;6.670;2022-11-20T14:07:45;6.00;91.00
2941;DHT22;1480;51.456;6.670;2022-11-20T14:10:20;5.60;91.00
2941;DHT22;1480;51.456;6.670;2022-11-20T14:12:49;5.70;91.10
2941;DHT22;1480;51.456;6.670;2022-11-20T14:15:25;5.60;91.80
2941;DHT22;1480;51.456;6.670;2022-11-20T14:17:52;5.60;91.90
2941;DHT22;1480;51.456;6.670;2022-11-20T14:20:20;5.80;92.50
2941;DHT22;1480;51.456;6.670;2022-11-20T14:22:51;5.80;92.50
2941;DHT22;1480;51.456;6.670;2022-11-20T14:25:20;5.90;92.60
2941;DHT22;1480;51.456;6.670;2022-11-20T14:27:53;5.80;92.30
2941;DHT22;1480;51.456;6.670;2022-11-20T14:30:22;5.90;92.60
2941;DHT22;1480;51.456;6.670;2022-11-20T14:32:49;6.00;92.60
2941;DHT22;1480;51.456;6.670;2022-11-20T14:35:21;6.00;92.60
2941;DHT22;1480;51.456;6.670;2022-11-20T14:37:50;6.00;92.30
2941;DHT22;1480;51.456;6.670;2022-11-20T14:40:27;6.10;92.50
2941;DHT22;1480;51.456;6.670;2022-11-20T14:42:57;5.90;92.80
2941;DHT22;1480;51.456;6.670;2022-11-20T14:45:25;5.80;93.00
2941;DHT22;1480;51.456;6.670;2022-11-20T14:47:55;5.90;93.10
2941;DHT22;1480;51.456;6.670;2022-11-20T14:50:24;5.70;93.40
2941;DHT22;1480;51.456;6.670;2022-11-20T14:52:54;5.80;93.40
2941;DHT22;1480;51.456;6.670;2022-11-20T14:55:26;5.90;93.50
2941;DHT22;1480;51.456;6.670;2022-11-20T14:57:59;5.90;93.60
2941;DHT22;1480;51.456;6.670;2022-11-20T15:00:26;6.00;93.70
2941;DHT22;1480;51.456;6.670;2022-11-20T15:02:54;5.90;93.70
2941;DHT22;1480;51.456;6.670;2022-11-20T15:05:23;5.90;93.90
2941;DHT22;1480;51.456;6.670;2022-11-20T15:07:52;6.10;93.90
2941;DHT22;1480;51.456;6.670;2022-11-20T15:10:30;5.70;93.90
2941;DHT22;1480;51.456;6.670;2022-11-20T15:13:00;5.90;94.00
2941;DHT22;1480;51.456;6.670;2022-11-20T15:15:31;5.80;94.30
2941;DHT22;1480;51.456;6.670;2022-11-20T15:17:59;6.00;94.10
2941;DHT22;1480;51.456;6.670;2022-11-20T15:20:29;5.90;94.20
2941;DHT22;1480;51.456;6.670;2022-11-20T15:22:57;6.10;94.40
2941;DHT22;1480;51.456;6.670;2022-11-20T15:25:24;5.70;94.40
2941;DHT22;1480;51.456;6.670;2022-11-20T15:27:54;5.80;94.40
2941;DHT22;1480;51.456;6.670;2022-11-20T15:30:23;5.90;94.60
2941;DHT22;1480;51.456;6.670;2022-11-20T15:32:50;6.00;94.40
2941;DHT22;1480;51.456;6.670;2022-11-20T15:35:17;5.80;94.80
2941;DHT22;1480;51.456;6.670;2022-11-20T15:37:44;6.00;95.20
2941;DHT22;1480;51.456;6.670;2022-11-20T15:40:11;5.90;94.90
2941;DHT22;1480;51.456;6.670;2022-11-20T15:42:38;6.00;95.00
2941;DHT22;1480;51.456;6.670;2022-11-20T15:45:28;6.00;95.20
2941;DHT22;1480;51.456;6.670;2022-11-20T15:47:56;6.00;94.90
2941;DHT22;1480;51.456;6.670;2022-11-20T15:50:25;6.10;95.40
2941;DHT22;1480;51.456;6.670;2022-11-20T15:52:53;6.10;95.30
2941;DHT22;1480;51.456;6.670;2022-11-20T15:55:20;6.00;95.40
2941;DHT22;1480;51.456;6.670;2022-11-20T15:57:47;6.20;95.60
2941;DHT22;1480;51.456;6.670;2022-11-20T16:00:15;6.10;95.40
2941;DHT22;1480;51.456;6.670;2022-11-20T16:02:44;6.10;95.80
2941;DHT22;1480;51.456;6.670;2022-11-20T16:05:11;6.00;95.70
2941;DHT22;1480;51.456;6.670;2022-11-20T16:07:38;6.10;95.80
2941;DHT22;1480;51.456;6.670;2022-11-20T16:10:06;6.30;96.20
2941;DHT22;1480;51.456;6.670;2022-11-20T16:12:33;6.10;96.60
2941;DHT22;1480;51.456;6.670;2022-11-20T16:15:17;6.20;96.30
2941;DHT22;1480;51.456;6.670;2022-11-20T16:18:03;5.90;96.50
2941;DHT22;1480;51.456;6.670;2022-11-20T16:20:30;6.00;96.50
2941;DHT22;1480;51.456;6.670;2022-11-20T16:22:57;6.20;96.20
2941;DHT22;1480;51.456;6.670;2022-11-20T16:25:24;6.20;96.50
2941;DHT22;1480;51.456;6.670;2022-11-20T16:27:51;6.20;96.60
2941;DHT22;1480;51.456;6.670;2022-11-20T16:30:17;6.20;96.70
2941;DHT22;1480;51.456;6.670;2022-11-20T16:32:44;6.00;97.00
2941;DHT22;1480;51.456;6.670;2022-11-20T16:35:13;6.10;97.40
2941;DHT22;1480;51.456;6.670;2022-11-20T16:37:40;6.20;97.60
2941;DHT22;1480;51.456;6.670;2022-11-20T16:40:08;6.20;98.10
2941;DHT22;1480;51.456;6.670;2022-11-20T16:42:36;6.10;98.20